Terminal Aerodrome Forecast
Issued by NWS Blacksburg, VA

Current Version | Previous Version | Text Only | Print | Product List | Glossary Off
Versions: 1 2 3 4 5 6 7 8 9 10 11 12 13 14 15 16 17 18 19 20 21 22 23 24 25 26

000
FTUS41 KRNK 311140
TAFBLF
TAF
KBLF 311140Z 3112/0112 00000KT P6SM OVC080
     FM311400 VRB03KT P6SM BKN045
     FM010000 00000KT P6SM SCT250
     FM010900 00000KT 2SM BR FEW250=

USA.gov is the U.S. government's official web portal to all federal, state and local government web resources and services.